sensor_id;sensor_type;location;lat;lon;timestamp;pressure;altitude;pressure_sealevel;temperature;humidity
70011;BME280;59543;37.950;-122.338;2022-08-21T00:01:54;100774.44;;;19.05;59.94
70011;BME280;59543;37.950;-122.338;2022-08-21T00:04:22;100775.84;;;18.87;60.93
70011;BME280;59543;37.950;-122.338;2022-08-21T00:06:51;100781.28;;;18.87;61.04
70011;BME280;59543;37.950;-122.338;2022-08-21T00:09:19;100777.13;;;18.98;60.92
70011;BME280;59543;37.950;-122.338;2022-08-21T00:11:46;100775.63;;;18.89;60.92
70011;BME280;59543;37.950;-122.338;2022-08-21T00:14:13;100769.03;;;19.11;60.54
70011;BME280;59543;37.950;-122.338;2022-08-21T00:16:39;100777.06;;;18.78;61.36
70011;BME280;59543;37.950;-122.338;2022-08-21T00:19:06;100777.03;;;18.43;61.91
70011;BME280;59543;37.950;-122.338;2022-08-21T00:21:34;100782.84;;;18.34;62.06
70011;BME280;59543;37.950;-122.338;2022-08-21T00:24:00;100782.41;;;18.30;63.10
70011;BME280;59543;37.950;-122.338;2022-08-21T00:26:27;100785.22;;;18.15;63.01
70011;BME280;59543;37.950;-122.338;2022-08-21T00:28:53;100784.28;;;18.30;63.20
70011;BME280;59543;37.950;-122.338;2022-08-21T00:31:19;100781.00;;;18.13;63.46
70011;BME280;59543;37.950;-122.338;2022-08-21T00:33:46;100785.97;;;18.02;63.89
70011;BME280;59543;37.950;-122.338;2022-08-21T00:36:12;100786.66;;;17.90;64.14
70011;BME280;59543;37.950;-122.338;2022-08-21T00:38:39;100792.50;;;18.08;64.11
70011;BME280;59543;37.950;-122.338;2022-08-21T00:41:08;100791.63;;;18.08;64.10
70011;BME280;59543;37.950;-122.338;2022-08-21T00:43:37;100788.78;;;18.16;64.39
70011;BME280;59543;37.950;-122.338;2022-08-21T00:46:04;100787.59;;;17.97;64.35
70011;BME280;59543;37.950;-122.338;2022-08-21T00:48:32;100801.25;;;17.82;65.06
70011;BME280;59543;37.950;-122.338;2022-08-21T00:51:06;100801.38;;;17.95;64.60
70011;BME280;59543;37.950;-122.338;2022-08-21T00:53:36;100791.81;;;17.05;67.09
70011;BME280;59543;37.950;-122.338;2022-08-21T00:56:05;100796.78;;;16.72;67.78
70011;BME280;59543;37.950;-122.338;2022-08-21T00:58:33;100794.00;;;16.95;68.65
70011;BME280;59543;37.950;-122.338;2022-08-21T01:01:04;100788.19;;;16.98;67.81
70011;BME280;59543;37.950;-122.338;2022-08-21T01:03:31;100795.88;;;16.80;68.43
70011;BME280;59543;37.950;-122.338;2022-08-21T01:05:58;100796.34;;;16.83;68.99
70011;BME280;59543;37.950;-122.338;2022-08-21T01:08:25;100791.94;;;16.67;69.49
70011;BME280;59543;37.950;-122.338;2022-08-21T01:10:53;100799.84;;;16.10;70.87
70011;BME280;59543;37.950;-122.338;2022-08-21T01:13:20;100790.19;;;16.07;71.21
70011;BME280;59543;37.950;-122.338;2022-08-21T01:15:49;100794.16;;;16.19;71.23
70011;BME280;59543;37.950;-122.338;2022-08-21T01:18:16;100791.72;;;16.25;70.96
70011;BME280;59543;37.950;-122.338;2022-08-21T01:23:26;100789.72;;;16.04;71.65
70011;BME280;59543;37.950;-122.338;2022-08-21T01:25:53;100795.31;;;16.02;71.66
70011;BME280;59543;37.950;-122.338;2022-08-21T01:28:21;100786.91;;;16.12;71.70
70011;BME280;59543;37.950;-122.338;2022-08-21T01:30:50;100784.19;;;16.12;72.20
70011;BME280;59543;37.950;-122.338;2022-08-21T01:33:22;100793.94;;;16.21;71.60
70011;BME280;59543;37.950;-122.338;2022-08-21T01:35:50;100786.22;;;15.95;72.35
70011;BME280;59543;37.950;-122.338;2022-08-21T01:38:16;100782.38;;;15.89;72.53
70011;BME280;59543;37.950;-122.338;2022-08-21T01:40:43;100778.97;;;15.64;73.55
70011;BME280;59543;37.950;-122.338;2022-08-21T01:43:10;100778.31;;;15.62;74.13
70011;BME280;59543;37.950;-122.338;2022-08-21T01:45:36;100782.75;;;15.55;74.73
70011;BME280;59543;37.950;-122.338;2022-08-21T01:48:02;100781.09;;;15.54;74.68
70011;BME280;59543;37.950;-122.338;2022-08-21T01:50:29;100783.75;;;15.62;74.43
70011;BME280;59543;37.950;-122.338;2022-08-21T01:52:55;100782.03;;;15.69;74.14
70011;BME280;59543;37.950;-122.338;2022-08-21T01:55:21;100783.19;;;15.67;74.03
70011;BME280;59543;37.950;-122.338;2022-08-21T01:57:49;100798.31;;;15.38;75.20
70011;BME280;59543;37.950;-122.338;2022-08-21T02:00:18;100782.34;;;15.43;75.22
70011;BME280;59543;37.950;-122.338;2022-08-21T02:02:44;100790.84;;;15.63;74.74
70011;BME280;59543;37.950;-122.338;2022-08-21T02:05:12;100784.94;;;15.68;74.04
70011;BME280;59543;37.950;-122.338;2022-08-21T02:07:48;100787.44;;;15.46;74.49
70011;BME280;59543;37.950;-122.338;2022-08-21T02:10:19;100790.41;;;15.28;75.55
70011;BME280;59543;37.950;-122.338;2022-08-21T02:12:45;100786.59;;;15.15;75.59
70011;BME280;59543;37.950;-122.338;2022-08-21T02:15:12;100782.75;;;15.01;76.11
70011;BME280;59543;37.950;-122.338;2022-08-21T02:17:51;100792.13;;;14.90;76.37
70011;BME280;59543;37.950;-122.338;2022-08-21T02:20:29;100797.41;;;14.83;76.22
70011;BME280;59543;37.950;-122.338;2022-08-21T02:22:56;100797.59;;;14.82;76.13
70011;BME280;59543;37.950;-122.338;2022-08-21T02:25:23;100796.75;;;14.81;76.57
70011;BME280;59543;37.950;-122.338;2022-08-21T02:27:51;100796.84;;;14.57;77.14
70011;BME280;59543;37.950;-122.338;2022-08-21T02:30:26;100794.63;;;14.52;77.56
70011;BME280;59543;37.950;-122.338;2022-08-21T02:32:54;100794.63;;;14.60;77.70
70011;BME280;59543;37.950;-122.338;2022-08-21T02:35:21;100793.63;;;14.45;77.55
70011;BME280;59543;37.950;-122.338;2022-08-21T02:37:51;100800.56;;;14.48;77.96
70011;BME280;59543;37.950;-122.338;2022-08-21T02:40:21;100799.19;;;14.52;78.06
70011;BME280;59543;37.950;-122.338;2022-08-21T02:42:48;100805.09;;;14.55;77.83
70011;BME280;59543;37.950;-122.338;2022-08-21T02:45:14;100810.19;;;14.58;77.91
70011;BME280;59543;37.950;-122.338;2022-08-21T02:47:50;100807.63;;;14.65;77.43
70011;BME280;59543;37.950;-122.338;2022-08-21T02:50:21;100812.00;;;14.74;77.27
70011;BME280;59543;37.950;-122.338;2022-08-21T02:52:48;100813.06;;;14.40;78.87
70011;BME280;59543;37.950;-122.338;2022-08-21T02:55:19;100805.94;;;14.56;78.16
70011;BME280;59543;37.950;-122.338;2022-08-21T02:57:46;100810.34;;;14.49;78.88
70011;BME280;59543;37.950;-122.338;2022-08-21T03:00:14;100810.72;;;14.54;78.89
70011;BME280;59543;37.950;-122.338;2022-08-21T03:02:41;100809.50;;;14.40;80.04
70011;BME280;59543;37.950;-122.338;2022-08-21T03:05:09;100804.63;;;14.35;80.66
70011;BME280;59543;37.950;-122.338;2022-08-21T03:07:36;100809.00;;;14.53;80.23
70011;BME280;59543;37.950;-122.338;2022-08-21T03:10:04;100807.47;;;14.50;80.33
70011;BME280;59543;37.950;-122.338;2022-08-21T03:12:30;100815.47;;;14.35;81.32
70011;BME280;59543;37.950;-122.338;2022-08-21T03:14:56;100819.16;;;14.43;80.99
70011;BME280;59543;37.950;-122.338;2022-08-21T03:17:24;100821.34;;;14.47;80.34
70011;BME280;59543;37.950;-122.338;2022-08-21T03:19:50;100831.66;;;14.44;80.47
70011;BME280;59543;37.950;-122.338;2022-08-21T03:22:16;100835.72;;;14.48;79.71
70011;BME280;59543;37.950;-122.338;2022-08-21T03:24:43;100839.81;;;14.52;79.66
70011;BME280;59543;37.950;-122.338;2022-08-21T03:27:11;100839.44;;;14.47;79.94
70011;BME280;59543;37.950;-122.338;2022-08-21T03:29:39;100841.81;;;14.50;79.51
70011;BME280;59543;37.950;-122.338;2022-08-21T03:32:05;100839.78;;;14.44;79.52
70011;BME280;59543;37.950;-122.338;2022-08-21T03:34:36;100838.94;;;14.43;79.31
70011;BME280;59543;37.950;-122.338;2022-08-21T03:37:04;100849.97;;;14.41;79.29
70011;BME280;59543;37.950;-122.338;2022-08-21T03:39:30;100850.13;;;14.56;78.43
70011;BME280;59543;37.950;-122.338;2022-08-21T03:41:57;100857.72;;;14.45;79.33
70011;BME280;59543;37.950;-122.338;2022-08-21T03:44:23;100863.81;;;14.55;78.87
70011;BME280;59543;37.950;-122.338;2022-08-21T03:46:49;100868.41;;;14.54;78.39
70011;BME280;59543;37.950;-122.338;2022-08-21T03:49:15;100864.31;;;14.50;79.04
70011;BME280;59543;37.950;-122.338;2022-08-21T03:51:41;100877.19;;;14.56;78.63
70011;BME280;59543;37.950;-122.338;2022-08-21T03:54:08;100886.66;;;14.52;78.87
70011;BME280;59543;37.950;-122.338;2022-08-21T03:56:34;100879.91;;;14.56;78.64
70011;BME280;59543;37.950;-122.338;2022-08-21T03:59:00;100891.22;;;14.52;79.10
70011;BME280;59543;37.950;-122.338;2022-08-21T04:01:28;100897.50;;;14.52;79.46
70011;BME280;59543;37.950;-122.338;2022-08-21T04:03:55;100888.34;;;14.45;79.82
70011;BME280;59543;37.950;-122.338;2022-08-21T04:06:21;100898.13;;;14.46;79.87
70011;BME280;59543;37.950;-122.338;2022-08-21T04:08:47;100906.09;;;14.31;79.79
70011;BME280;59543;37.950;-122.338;2022-08-21T04:11:14;100898.31;;;14.36;79.32
70011;BME280;59543;37.950;-122.338;2022-08-21T04:13:40;100909.81;;;14.30;79.19
70011;BME280;59543;37.950;-122.338;2022-08-21T04:16:07;100900.00;;;14.37;79.12
70011;BME280;59543;37.950;-122.338;2022-08-21T04:18:35;100911.84;;;14.28;79.54
70011;BME280;59543;37.950;-122.338;2022-08-21T04:21:01;100914.91;;;14.25;79.84
70011;BME280;59543;37.950;-122.338;2022-08-21T04:23:29;100915.41;;;14.21;79.73
70011;BME280;59543;37.950;-122.338;2022-08-21T04:25:56;100909.31;;;14.27;79.53
70011;BME280;59543;37.950;-122.338;2022-08-21T04:28:26;100901.88;;;14.29;80.02
70011;BME280;59543;37.950;-122.338;2022-08-21T04:30:53;100906.44;;;14.36;79.86
70011;BME280;59543;37.950;-122.338;2022-08-21T04:33:21;100899.84;;;14.31;80.64
70011;BME280;59543;37.950;-122.338;2022-08-21T04:35:48;100904.41;;;14.30;80.84
70011;BME280;59543;37.950;-122.338;2022-08-21T04:38:15;100908.81;;;14.39;80.64
70011;BME280;59543;37.950;-122.338;2022-08-21T04:40:41;100912.19;;;14.41;80.25
70011;BME280;59543;37.950;-122.338;2022-08-21T04:43:09;100912.69;;;14.29;80.61
70011;BME280;59543;37.950;-122.338;2022-08-21T04:45:43;100927.56;;;14.25;80.92
70011;BME280;59543;37.950;-122.338;2022-08-21T04:48:11;100931.81;;;14.35;80.53
70011;BME280;59543;37.950;-122.338;2022-08-21T04:50:55;100935.22;;;14.29;80.71
70011;BME280;59543;37.950;-122.338;2022-08-21T04:53:31;100936.88;;;14.22;81.16
70011;BME280;59543;37.950;-122.338;2022-08-21T04:56:11;100936.72;;;14.24;81.18
70011;BME280;59543;37.950;-122.338;2022-08-21T04:58:39;100928.44;;;14.33;80.70
70011;BME280;59543;37.950;-122.338;2022-08-21T05:01:12;100933.31;;;14.22;81.06
70011;BME280;59543;37.950;-122.338;2022-08-21T05:03:39;100943.31;;;14.21;81.43
70011;BME280;59543;37.950;-122.338;2022-08-21T05:06:10;100933.47;;;14.04;82.47
70011;BME280;59543;37.950;-122.338;2022-08-21T05:08:40;100935.34;;;14.11;82.31
70011;BME280;59543;37.950;-122.338;2022-08-21T05:11:08;100941.97;;;14.17;81.66
70011;BME280;59543;37.950;-122.338;2022-08-21T05:13:35;100936.19;;;14.12;81.71
70011;BME280;59543;37.950;-122.338;2022-08-21T05:16:01;100941.09;;;14.08;81.90
70011;BME280;59543;37.950;-122.338;2022-08-21T05:18:28;100939.56;;;14.06;82.24
70011;BME280;59543;37.950;-122.338;2022-08-21T05:20:54;100947.84;;;14.04;81.78
70011;BME280;59543;37.950;-122.338;2022-08-21T05:23:20;100947.03;;;14.12;81.65
70011;BME280;59543;37.950;-122.338;2022-08-21T05:25:46;100952.06;;;14.07;81.61
70011;BME280;59543;37.950;-122.338;2022-08-21T05:28:13;100961.91;;;14.16;81.55
70011;BME280;59543;37.950;-122.338;2022-08-21T05:30:39;100963.09;;;14.05;82.04
70011;BME280;59543;37.950;-122.338;2022-08-21T05:33:07;100966.28;;;14.01;82.06
70011;BME280;59543;37.950;-122.338;2022-08-21T05:35:33;100963.38;;;13.94;82.48
70011;BME280;59543;37.950;-122.338;2022-08-21T05:38:01;100966.63;;;14.06;81.88
70011;BME280;59543;37.950;-122.338;2022-08-21T05:40:28;100971.53;;;14.10;81.57
70011;BME280;59543;37.950;-122.338;2022-08-21T05:42:55;100969.50;;;14.12;81.57
70011;BME280;59543;37.950;-122.338;2022-08-21T05:45:30;100974.25;;;14.18;81.29
70011;BME280;59543;37.950;-122.338;2022-08-21T05:47:56;100970.00;;;14.00;82.25
70011;BME280;59543;37.950;-122.338;2022-08-21T05:50:22;100983.50;;;13.91;82.71
70011;BME280;59543;37.950;-122.338;2022-08-21T05:52:49;100980.63;;;14.01;82.31
70011;BME280;59543;37.950;-122.338;2022-08-21T05:55:15;100988.09;;;14.07;81.98
70011;BME280;59543;37.950;-122.338;2022-08-21T05:57:41;100983.34;;;14.01;81.99
70011;BME280;59543;37.950;-122.338;2022-08-21T06:00:08;100983.88;;;14.13;81.85
70011;BME280;59543;37.950;-122.338;2022-08-21T06:02:39;100980.63;;;14.01;82.01
70011;BME280;59543;37.950;-122.338;2022-08-21T06:05:06;100976.59;;;14.05;81.71
70011;BME280;59543;37.950;-122.338;2022-08-21T06:07:32;100976.22;;;13.92;82.33
70011;BME280;59543;37.950;-122.338;2022-08-21T06:09:59;100987.03;;;13.92;82.65
70011;BME280;59543;37.950;-122.338;2022-08-21T06:12:25;100984.00;;;13.95;82.60
70011;BME280;59543;37.950;-122.338;2022-08-21T06:14:51;100991.09;;;13.88;82.59
70011;BME280;59543;37.950;-122.338;2022-08-21T06:17:18;100989.72;;;13.84;82.79
70011;BME280;59543;37.950;-122.338;2022-08-21T06:19:44;100988.53;;;13.86;83.19
70011;BME280;59543;37.950;-122.338;2022-08-21T06:22:11;100985.34;;;13.91;83.04
70011;BME280;59543;37.950;-122.338;2022-08-21T06:24:37;100987.03;;;13.92;83.26
70011;BME280;59543;37.950;-122.338;2022-08-21T06:27:05;100996.03;;;14.01;82.67
70011;BME280;59543;37.950;-122.338;2022-08-21T06:29:32;100996.00;;;13.84;83.67
70011;BME280;59543;37.950;-122.338;2022-08-21T06:31:58;100996.50;;;13.88;83.64
70011;BME280;59543;37.950;-122.338;2022-08-21T06:34:24;101007.81;;;13.91;83.93
70011;BME280;59543;37.950;-122.338;2022-08-21T06:36:51;101002.13;;;14.03;83.54
70011;BME280;59543;37.950;-122.338;2022-08-21T06:39:17;101002.41;;;13.91;84.00
70011;BME280;59543;37.950;-122.338;2022-08-21T06:41:43;101006.84;;;14.01;83.44
70011;BME280;59543;37.950;-122.338;2022-08-21T06:44:09;101006.84;;;14.01;83.63
70011;BME280;59543;37.950;-122.338;2022-08-21T06:46:36;101004.66;;;13.96;83.81
70011;BME280;59543;37.950;-122.338;2022-08-21T06:49:03;101023.59;;;14.12;83.62
70011;BME280;59543;37.950;-122.338;2022-08-21T06:51:29;101018.03;;;14.06;83.50
70011;BME280;59543;37.950;-122.338;2022-08-21T06:53:55;101029.19;;;14.19;83.12
70011;BME280;59543;37.950;-122.338;2022-08-21T06:56:21;101020.09;;;14.20;83.12
70011;BME280;59543;37.950;-122.338;2022-08-21T06:58:48;101020.91;;;14.12;83.49
70011;BME280;59543;37.950;-122.338;2022-08-21T07:01:14;101020.41;;;14.09;83.95
70011;BME280;59543;37.950;-122.338;2022-08-21T07:03:42;101028.53;;;14.17;83.49
70011;BME280;59543;37.950;-122.338;2022-08-21T07:06:10;101023.13;;;14.25;83.56
70011;BME280;59543;37.950;-122.338;2022-08-21T07:08:37;101036.97;;;14.22;83.50
70011;BME280;59543;37.950;-122.338;2022-08-21T07:11:09;101037.50;;;14.17;83.69
70011;BME280;59543;37.950;-122.338;2022-08-21T07:13:35;101040.34;;;14.16;84.03
70011;BME280;59543;37.950;-122.338;2022-08-21T07:16:01;101042.41;;;14.14;83.78
70011;BME280;59543;37.950;-122.338;2022-08-21T07:18:28;101045.59;;;14.26;83.62
70011;BME280;59543;37.950;-122.338;2022-08-21T07:20:55;101038.38;;;14.26;83.62
70011;BME280;59543;37.950;-122.338;2022-08-21T07:23:46;101032.22;;;14.16;83.87
70011;BME280;59543;37.950;-122.338;2022-08-21T07:26:14;101040.53;;;14.14;84.24
70011;BME280;59543;37.950;-122.338;2022-08-21T07:28:41;101042.53;;;14.12;84.67
70011;BME280;59543;37.950;-122.338;2022-08-21T07:31:09;101047.44;;;14.09;84.70
70011;BME280;59543;37.950;-122.338;2022-08-21T07:33:36;101043.06;;;14.16;84.99
70011;BME280;59543;37.950;-122.338;2022-08-21T07:36:03;101038.16;;;14.19;84.57
70011;BME280;59543;37.950;-122.338;2022-08-21T07:38:29;101051.03;;;14.26;84.21
70011;BME280;59543;37.950;-122.338;2022-08-21T07:40:56;101049.53;;;14.23;84.60
70011;BME280;59543;37.950;-122.338;2022-08-21T07:43:24;101044.09;;;14.23;84.70
70011;BME280;59543;37.950;-122.338;2022-08-21T07:45:51;101045.59;;;14.26;84.71
70011;BME280;59543;37.950;-122.338;2022-08-21T07:48:20;101055.59;;;14.17;85.06
70011;BME280;59543;37.950;-122.338;2022-08-21T07:50:47;101056.06;;;14.12;85.50
70011;BME280;59543;37.950;-122.338;2022-08-21T07:53:14;101052.88;;;14.17;85.35
70011;BME280;59543;37.950;-122.338;2022-08-21T07:55:40;101058.28;;;14.25;85.34
70011;BME280;59543;37.950;-122.338;2022-08-21T07:58:07;101060.53;;;14.30;85.20
70011;BME280;59543;37.950;-122.338;2022-08-21T08:00:33;101062.38;;;14.29;84.89
70011;BME280;59543;37.950;-122.338;2022-08-21T08:03:00;101063.19;;;14.22;85.27
70011;BME280;59543;37.950;-122.338;2022-08-21T08:05:29;101069.44;;;14.22;85.31
70011;BME280;59543;37.950;-122.338;2022-08-21T08:07:56;101067.66;;;14.39;84.87
70011;BME280;59543;37.950;-122.338;2022-08-21T08:10:23;101068.63;;;14.38;84.59
70011;BME280;59543;37.950;-122.338;2022-08-21T08:12:52;101077.13;;;14.43;84.55
70011;BME280;59543;37.950;-122.338;2022-08-21T08:15:23;101070.69;;;14.36;84.71
70011;BME280;59543;37.950;-122.338;2022-08-21T08:17:49;101072.38;;;14.37;84.63
70011;BME280;59543;37.950;-122.338;2022-08-21T08:20:16;101065.09;;;14.29;85.01
70011;BME280;59543;37.950;-122.338;2022-08-21T08:22:44;101069.47;;;14.30;85.43
70011;BME280;59543;37.950;-122.338;2022-08-21T08:25:13;101070.19;;;14.32;84.83
70011;BME280;59543;37.950;-122.338;2022-08-21T08:27:40;101070.03;;;14.42;84.57
70011;BME280;59543;37.950;-122.338;2022-08-21T08:30:09;101072.22;;;14.38;84.74
70011;BME280;59543;37.950;-122.338;2022-08-21T08:32:36;101070.16;;;14.40;84.78
70011;BME280;59543;37.950;-122.338;2022-08-21T08:35:04;101072.34;;;14.21;85.27
70011;BME280;59543;37.950;-122.338;2022-08-21T08:37:32;101070.19;;;14.32;84.87
70011;BME280;59543;37.950;-122.338;2022-08-21T08:39:59;101061.34;;;14.22;85.60
70011;BME280;59543;37.950;-122.338;2022-08-21T08:42:35;101061.69;;;14.27;85.27
70011;BME280;59543;37.950;-122.338;2022-08-21T08:45:06;101052.41;;;14.38;84.90
70011;BME280;59543;37.950;-122.338;2022-08-21T08:47:36;101053.94;;;14.32;84.87
70011;BME280;59543;37.950;-122.338;2022-08-21T08:52:34;101055.94;;;14.30;84.99
70011;BME280;59543;37.950;-122.338;2022-08-21T08:55:07;101058.31;;;14.33;84.90
70011;BME280;59543;37.950;-122.338;2022-08-21T08:57:37;101056.09;;;14.29;85.45
70011;BME280;59543;37.950;-122.338;2022-08-21T09:00:09;101061.19;;;14.32;85.32
70011;BME280;59543;37.950;-122.338;2022-08-21T09:02:41;101057.47;;;14.33;85.06
70011;BME280;59543;37.950;-122.338;2022-08-21T09:05:09;101069.16;;;14.33;84.87
70011;BME280;59543;37.950;-122.338;2022-08-21T09:13:13;101073.38;;;14.36;84.71
70011;BME280;59543;37.950;-122.338;2022-08-21T09:21:32;101076.59;;;14.39;84.45
70011;BME280;59543;37.950;-122.338;2022-08-21T09:27:07;101081.72;;;14.51;84.15
70011;BME280;59543;37.950;-122.338;2022-08-21T09:29:40;101083.28;;;14.53;83.83
70011;BME280;59543;37.950;-122.338;2022-08-21T09:32:16;101081.22;;;14.55;83.82
70011;BME280;59543;37.950;-122.338;2022-08-21T09:37:27;101079.16;;;14.49;83.83
70011;BME280;59543;37.950;-122.338;2022-08-21T09:39:55;101083.91;;;14.47;83.80
70011;BME280;59543;37.950;-122.338;2022-08-21T09:42:32;101079.03;;;14.67;83.16
70011;BME280;59543;37.950;-122.338;2022-08-21T09:45:11;101091.91;;;14.65;83.43
70011;BME280;59543;37.950;-122.338;2022-08-21T09:47:40;101096.63;;;14.55;83.68
70011;BME280;59543;37.950;-122.338;2022-08-21T09:50:19;101083.63;;;14.67;83.55
70011;BME280;59543;37.950;-122.338;2022-08-21T09:52:54;101091.38;;;14.61;83.17
70011;BME280;59543;37.950;-122.338;2022-08-21T09:55:31;101089.19;;;14.57;83.06
70011;BME280;59543;37.950;-122.338;2022-08-21T09:58:18;101091.41;;;14.53;83.34
70011;BME280;59543;37.950;-122.338;2022-08-21T10:00:44;101091.91;;;14.57;82.89
70011;BME280;59543;37.950;-122.338;2022-08-21T10:03:15;101097.97;;;14.59;83.30
70011;BME280;59543;37.950;-122.338;2022-08-21T10:06:08;101096.13;;;14.51;83.72
70011;BME280;59543;37.950;-122.338;2022-08-21T10:08:38;101096.75;;;14.45;84.12
70011;BME280;59543;37.950;-122.338;2022-08-21T10:11:08;101098.41;;;14.38;84.28
70011;BME280;59543;37.950;-122.338;2022-08-21T10:16:53;101108.47;;;14.54;83.83
70011;BME280;59543;37.950;-122.338;2022-08-21T10:20:07;101107.13;;;14.58;83.13
70011;BME280;59543;37.950;-122.338;2022-08-21T10:31:55;101116.13;;;14.67;83.15
70011;BME280;59543;37.950;-122.338;2022-08-21T10:48:54;101120.84;;;14.56;82.47
70011;BME280;59543;37.950;-122.338;2022-08-21T10:56:36;101125.06;;;14.67;81.50
70011;BME280;59543;37.950;-122.338;2022-08-21T11:04:56;101137.69;;;14.42;82.49
70011;BME280;59543;37.950;-122.338;2022-08-21T11:07:38;101141.94;;;14.45;82.70
70011;BME280;59543;37.950;-122.338;2022-08-21T11:10:16;101145.16;;;14.48;81.94
70011;BME280;59543;37.950;-122.338;2022-08-21T11:12:48;101136.81;;;14.33;82.82
70011;BME280;59543;37.950;-122.338;2022-08-21T11:15:35;101150.00;;;14.36;82.92
70011;BME280;59543;37.950;-122.338;2022-08-21T11:18:26;101137.81;;;14.32;83.06
70011;BME280;59543;37.950;-122.338;2022-08-21T11:23:25;101149.34;;;14.43;82.33
70011;BME280;59543;37.950;-122.338;2022-08-21T11:26:13;101152.38;;;14.39;82.55
70011;BME280;59543;37.950;-122.338;2022-08-21T11:28:54;101155.91;;;14.32;82.64
70011;BME280;59543;37.950;-122.338;2022-08-21T11:34:25;101142.22;;;14.33;83.09
70011;BME280;59543;37.950;-122.338;2022-08-21T11:37:22;101152.69;;;14.28;83.56
70011;BME280;59543;37.950;-122.338;2022-08-21T11:40:04;101149.72;;;14.48;82.70
70011;BME280;59543;37.950;-122.338;2022-08-21T11:45:37;101158.06;;;14.54;82.50
70011;BME280;59543;37.950;-122.338;2022-08-21T11:48:39;101167.34;;;14.52;82.60
70011;BME280;59543;37.950;-122.338;2022-08-21T11:51:25;101159.34;;;14.42;82.42
70011;BME280;59543;37.950;-122.338;2022-08-21T11:56:26;101170.44;;;14.31;82.67
70011;BME280;59543;37.950;-122.338;2022-08-21T11:59:20;101171.47;;;14.30;81.95
70011;BME280;59543;37.950;-122.338;2022-08-21T12:01:50;101177.53;;;14.24;82.24
70011;BME280;59543;37.950;-122.338;2022-08-21T12:06:53;101185.31;;;14.27;82.73
70011;BME280;59543;37.950;-122.338;2022-08-21T12:09:32;101181.13;;;14.32;82.47
70011;BME280;59543;37.950;-122.338;2022-08-21T12:12:09;101183.97;;;14.31;82.51
70011;BME280;59543;37.950;-122.338;2022-08-21T12:14:45;101182.28;;;14.30;82.72
70011;BME280;59543;37.950;-122.338;2022-08-21T12:17:23;101198.34;;;14.31;82.81
70011;BME280;59543;37.950;-122.338;2022-08-21T12:20:04;101200.72;;;14.34;83.17
70011;BME280;59543;37.950;-122.338;2022-08-21T12:22:41;101202.94;;;14.31;82.98
70011;BME280;59543;37.950;-122.338;2022-08-21T12:25:10;101209.53;;;14.36;82.67
70011;BME280;59543;37.950;-122.338;2022-08-21T12:27:49;101206.28;;;14.25;83.21
70011;BME280;59543;37.950;-122.338;2022-08-21T12:33:01;101217.16;;;14.33;83.17
70011;BME280;59543;37.950;-122.338;2022-08-21T12:35:48;101222.69;;;14.23;83.51
70011;BME280;59543;37.950;-122.338;2022-08-21T12:41:01;101222.59;;;14.41;83.17
70011;BME280;59543;37.950;-122.338;2022-08-21T12:43:40;101218.50;;;14.37;82.91
70011;BME280;59543;37.950;-122.338;2022-08-21T12:46:15;101228.31;;;14.38;82.76
70011;BME280;59543;37.950;-122.338;2022-08-21T12:48:56;101234.88;;;14.27;83.04
70011;BME280;59543;37.950;-122.338;2022-08-21T12:54:23;101238.28;;;14.37;83.36
70011;BME280;59543;37.950;-122.338;2022-08-21T12:56:58;101238.66;;;14.43;83.13
70011;BME280;59543;37.950;-122.338;2022-08-21T12:59:25;101249.31;;;14.36;82.99
70011;BME280;59543;37.950;-122.338;2022-08-21T13:01:52;101242.41;;;14.41;82.71
70011;BME280;59543;37.950;-122.338;2022-08-21T13:04:37;101247.31;;;14.46;82.36
70011;BME280;59543;37.950;-122.338;2022-08-21T13:07:10;101242.34;;;14.33;83.15
70011;BME280;59543;37.950;-122.338;2022-08-21T13:09:59;101247.25;;;14.38;82.95
70011;BME280;59543;37.950;-122.338;2022-08-21T13:12:27;101254.72;;;14.36;83.18
70011;BME280;59543;37.950;-122.338;2022-08-21T13:15:00;101254.91;;;14.43;83.17
70011;BME280;59543;37.950;-122.338;2022-08-21T13:17:31;101252.00;;;14.36;83.13
70011;BME280;59543;37.950;-122.338;2022-08-21T13:20:06;101258.25;;;14.36;83.26
70011;BME280;59543;37.950;-122.338;2022-08-21T13:22:41;101258.38;;;14.27;84.12
70011;BME280;59543;37.950;-122.338;2022-08-21T13:25:17;101260.59;;;14.31;84.13
70011;BME280;59543;37.950;-122.338;2022-08-21T13:27:56;101269.09;;;14.36;83.88
70011;BME280;59543;37.950;-122.338;2022-08-21T13:30:23;101269.78;;;14.38;83.42
70011;BME280;59543;37.950;-122.338;2022-08-21T13:32:54;101277.59;;;14.41;83.61
70011;BME280;59543;37.950;-122.338;2022-08-21T13:36:10;101280.69;;;14.29;83.94
70011;BME280;59543;37.950;-122.338;2022-08-21T13:38:10;101282.78;;;14.35;83.69
70011;BME280;59543;37.950;-122.338;2022-08-21T13:41:08;101289.94;;;14.44;83.46
70011;BME280;59543;37.950;-122.338;2022-08-21T13:43:37;101291.25;;;14.40;83.40
70011;BME280;59543;37.950;-122.338;2022-08-21T13:46:09;101295.47;;;14.34;83.91
70011;BME280;59543;37.950;-122.338;2022-08-21T13:48:36;101297.06;;;14.45;83.73
70011;BME280;59543;37.950;-122.338;2022-08-21T13:51:04;101301.94;;;14.41;83.79
70011;BME280;59543;37.950;-122.338;2022-08-21T13:53:33;101311.50;;;14.54;83.28
70011;BME280;59543;37.950;-122.338;2022-08-21T13:56:02;101320.06;;;14.49;83.39
70011;BME280;59543;37.950;-122.338;2022-08-21T14:00:56;101321.09;;;14.48;82.90